sensor_id;sensor_type;location;lat;lon;timestamp;pressure;altitude;pressure_sealevel;temperature;humidity
85507;BME280;75915;41.988;21.460;2024-02-23T00:00:42;98619.53;;;8.69;55.64
85507;BME280;75915;41.988;21.460;2024-02-23T00:03:09;98617.97;;;8.73;55.83
85507;BME280;75915;41.988;21.460;2024-02-23T00:05:36;98611.31;;;8.76;55.63
85507;BME280;75915;41.988;21.460;2024-02-23T00:08:01;98600.53;;;8.66;56.21
85507;BME280;75915;41.988;21.460;2024-02-23T00:10:27;98612.22;;;8.60;56.58
85507;BME280;75915;41.988;21.460;2024-02-23T00:12:53;98625.13;;;8.68;55.96
85507;BME280;75915;41.988;21.460;2024-02-23T00:15:20;98619.47;;;8.64;55.86
85507;BME280;75915;41.988;21.460;2024-02-23T00:17:45;98621.59;;;8.62;56.15
85507;BME280;75915;41.988;21.460;2024-02-23T00:20:11;98613.59;;;8.62;55.90
85507;BME280;75915;41.988;21.460;2024-02-23T00:22:37;98606.00;;;8.49;56.25
85507;BME280;75915;41.988;21.460;2024-02-23T00:25:03;98606.59;;;8.56;56.14
85507;BME280;75915;41.988;21.460;2024-02-23T00:27:29;98607.72;;;8.60;56.01
85507;BME280;75915;41.988;21.460;2024-02-23T00:29:55;98604.16;;;8.54;55.98
85507;BME280;75915;41.988;21.460;2024-02-23T00:32:21;98612.78;;;8.62;56.04
85507;BME280;75915;41.988;21.460;2024-02-23T00:34:47;98599.47;;;8.67;56.03
85507;BME280;75915;41.988;21.460;2024-02-23T00:37:12;98601.59;;;8.65;55.77
85507;BME280;75915;41.988;21.460;2024-02-23T00:39:38;98596.56;;;8.68;55.96
85507;BME280;75915;41.988;21.460;2024-02-23T00:42:03;98595.34;;;8.54;56.04
85507;BME280;75915;41.988;21.460;2024-02-23T00:44:29;98596.44;;;8.53;56.07
85507;BME280;75915;41.988;21.460;2024-02-23T00:46:55;98594.94;;;8.40;56.43
85507;BME280;75915;41.988;21.460;2024-02-23T00:49:27;98594.03;;;8.29;56.65
85507;BME280;75915;41.988;21.460;2024-02-23T00:51:52;98587.88;;;8.29;56.82
85507;BME280;75915;41.988;21.460;2024-02-23T00:54:19;98581.22;;;8.31;56.81
85507;BME280;75915;41.988;21.460;2024-02-23T00:56:44;98586.06;;;8.34;56.69
85507;BME280;75915;41.988;21.460;2024-02-23T00:59:10;98588.22;;;8.38;56.83
85507;BME280;75915;41.988;21.460;2024-02-23T01:01:36;98575.91;;;8.31;56.69
85507;BME280;75915;41.988;21.460;2024-02-23T01:04:02;98583.78;;;8.21;57.03
85507;BME280;75915;41.988;21.460;2024-02-23T01:06:28;98581.38;;;8.20;56.79
85507;BME280;75915;41.988;21.460;2024-02-23T01:08:56;98585.63;;;8.21;56.90
85507;BME280;75915;41.988;21.460;2024-02-23T01:11:23;98590.13;;;8.15;57.34
85507;BME280;75915;41.988;21.460;2024-02-23T01:13:49;98584.06;;;7.98;57.55
85507;BME280;75915;41.988;21.460;2024-02-23T01:16:16;98589.25;;;7.87;57.69
85507;BME280;75915;41.988;21.460;2024-02-23T01:18:41;98590.31;;;7.86;57.95
85507;BME280;75915;41.988;21.460;2024-02-23T01:21:08;98589.09;;;7.72;58.47
85507;BME280;75915;41.988;21.460;2024-02-23T01:23:33;98579.78;;;7.75;58.04
85507;BME280;75915;41.988;21.460;2024-02-23T01:25:59;98571.09;;;7.84;58.21
85507;BME280;75915;41.988;21.460;2024-02-23T01:28:25;98586.66;;;7.70;58.20
85507;BME280;75915;41.988;21.460;2024-02-23T01:30:50;98585.06;;;7.69;58.46
85507;BME280;75915;41.988;21.460;2024-02-23T01:33:16;98573.53;;;7.64;58.72
85507;BME280;75915;41.988;21.460;2024-02-23T01:35:43;98574.44;;;7.53;58.96
85507;BME280;75915;41.988;21.460;2024-02-23T01:38:08;98572.91;;;7.57;58.99
85507;BME280;75915;41.988;21.460;2024-02-23T01:40:34;98555.91;;;7.63;58.94
85507;BME280;75915;41.988;21.460;2024-02-23T01:43:03;98559.25;;;7.53;59.09
85507;BME280;75915;41.988;21.460;2024-02-23T01:45:31;98567.22;;;7.53;59.12
85507;BME280;75915;41.988;21.460;2024-02-23T01:47:57;98555.81;;;7.36;59.45
85507;BME280;75915;41.988;21.460;2024-02-23T01:50:24;98538.69;;;7.32;59.88
85507;BME280;75915;41.988;21.460;2024-02-23T01:52:50;98551.09;;;7.21;60.25
85507;BME280;75915;41.988;21.460;2024-02-23T01:55:19;98547.75;;;7.31;59.90
85507;BME280;75915;41.988;21.460;2024-02-23T01:57:46;98540.38;;;7.38;59.58
85507;BME280;75915;41.988;21.460;2024-02-23T02:00:16;98542.88;;;7.44;59.38
85507;BME280;75915;41.988;21.460;2024-02-23T02:02:45;98544.84;;;7.32;59.52
85507;BME280;75915;41.988;21.460;2024-02-23T02:05:12;98536.22;;;7.25;60.05
85507;BME280;75915;41.988;21.460;2024-02-23T02:07:40;98531.88;;;7.19;60.44
85507;BME280;75915;41.988;21.460;2024-02-23T02:10:08;98538.50;;;7.16;60.49
85507;BME280;75915;41.988;21.460;2024-02-23T02:12:34;98526.13;;;7.10;60.34
85507;BME280;75915;41.988;21.460;2024-02-23T02:15:01;98536.31;;;7.13;60.26
85507;BME280;75915;41.988;21.460;2024-02-23T02:17:28;98544.78;;;7.10;60.78
85507;BME280;75915;41.988;21.460;2024-02-23T02:19:53;98536.31;;;7.13;60.25
85507;BME280;75915;41.988;21.460;2024-02-23T02:22:19;98534.47;;;7.14;60.29
85507;BME280;75915;41.988;21.460;2024-02-23T02:24:45;98543.91;;;7.04;60.85
85507;BME280;75915;41.988;21.460;2024-02-23T02:27:12;98540.22;;;7.05;60.44
85507;BME280;75915;41.988;21.460;2024-02-23T02:29:37;98530.81;;;7.03;60.72
85507;BME280;75915;41.988;21.460;2024-02-23T02:32:03;98539.00;;;6.96;61.20
85507;BME280;75915;41.988;21.460;2024-02-23T02:34:30;98530.69;;;6.93;61.13
85507;BME280;75915;41.988;21.460;2024-02-23T02:36:55;98536.41;;;7.01;61.11
85507;BME280;75915;41.988;21.460;2024-02-23T02:39:21;98529.47;;;7.00;61.17
85507;BME280;75915;41.988;21.460;2024-02-23T02:41:48;98532.63;;;6.97;61.17
85507;BME280;75915;41.988;21.460;2024-02-23T02:44:14;98543.03;;;6.99;61.45
85507;BME280;75915;41.988;21.460;2024-02-23T02:46:40;98532.97;;;7.01;61.30
85507;BME280;75915;41.988;21.460;2024-02-23T02:49:06;98536.09;;;6.98;61.49
85507;BME280;75915;41.988;21.460;2024-02-23T02:51:31;98541.91;;;6.95;61.55
85507;BME280;75915;41.988;21.460;2024-02-23T02:53:57;98526.81;;;6.83;61.92
85507;BME280;75915;41.988;21.460;2024-02-23T02:56:23;98542.91;;;6.89;61.77
85507;BME280;75915;41.988;21.460;2024-02-23T02:58:48;98534.41;;;6.92;61.91
85507;BME280;75915;41.988;21.460;2024-02-23T03:01:14;98536.28;;;6.91;61.69
85507;BME280;75915;41.988;21.460;2024-02-23T03:03:41;98536.28;;;6.91;61.59
85507;BME280;75915;41.988;21.460;2024-02-23T03:06:06;98529.81;;;6.87;61.68
85507;BME280;75915;41.988;21.460;2024-02-23T03:08:33;98534.25;;;6.81;62.03
85507;BME280;75915;41.988;21.460;2024-02-23T03:10:59;98542.56;;;6.85;61.95
85507;BME280;75915;41.988;21.460;2024-02-23T03:13:24;98529.41;;;6.78;61.97
85507;BME280;75915;41.988;21.460;2024-02-23T03:15:50;98542.56;;;6.85;61.92
85507;BME280;75915;41.988;21.460;2024-02-23T03:18:15;98522.97;;;6.91;61.96
85507;BME280;75915;41.988;21.460;2024-02-23T03:20:41;98521.75;;;6.82;61.96
85507;BME280;75915;41.988;21.460;2024-02-23T03:23:07;98534.56;;;6.85;62.07
85507;BME280;75915;41.988;21.460;2024-02-23T03:25:33;98531.91;;;6.85;62.02
85507;BME280;75915;41.988;21.460;2024-02-23T03:27:59;98537.81;;;6.87;61.82
85507;BME280;75915;41.988;21.460;2024-02-23T03:30:24;98549.97;;;6.83;61.83
85507;BME280;75915;41.988;21.460;2024-02-23T03:32:50;98532.06;;;6.78;61.80
85507;BME280;75915;41.988;21.460;2024-02-23T03:35:15;98539.66;;;6.70;62.09
85507;BME280;75915;41.988;21.460;2024-02-23T03:37:41;98539.59;;;6.65;62.49
85507;BME280;75915;41.988;21.460;2024-02-23T03:40:07;98546.81;;;6.52;62.67
85507;BME280;75915;41.988;21.460;2024-02-23T03:42:32;98541.50;;;6.52;62.45
85507;BME280;75915;41.988;21.460;2024-02-23T03:44:58;98543.28;;;6.47;62.81
85507;BME280;75915;41.988;21.460;2024-02-23T03:47:24;98548.59;;;6.47;62.62
85507;BME280;75915;41.988;21.460;2024-02-23T03:49:50;98545.06;;;6.41;63.07
85507;BME280;75915;41.988;21.460;2024-02-23T03:52:16;98543.03;;;6.31;63.52
85507;BME280;75915;41.988;21.460;2024-02-23T03:54:42;98552.47;;;6.39;62.95
85507;BME280;75915;41.988;21.460;2024-02-23T03:57:09;98551.53;;;6.45;62.79
85507;BME280;75915;41.988;21.460;2024-02-23T03:59:36;98539.66;;;6.36;62.98
85507;BME280;75915;41.988;21.460;2024-02-23T04:02:03;98535.94;;;6.08;63.95
85507;BME280;75915;41.988;21.460;2024-02-23T04:04:29;98540.56;;;6.13;63.61
85507;BME280;75915;41.988;21.460;2024-02-23T04:06:56;98541.56;;;6.24;63.70
85507;BME280;75915;41.988;21.460;2024-02-23T04:09:21;98542.50;;;6.17;63.36
85507;BME280;75915;41.988;21.460;2024-02-23T04:11:48;98531.84;;;6.17;63.33
85507;BME280;75915;41.988;21.460;2024-02-23T04:14:15;98538.63;;;6.25;63.15
85507;BME280;75915;41.988;21.460;2024-02-23T04:16:41;98532.75;;;6.23;63.06
85507;BME280;75915;41.988;21.460;2024-02-23T04:19:06;98535.75;;;5.98;63.91
85507;BME280;75915;41.988;21.460;2024-02-23T04:21:32;98526.63;;;5.94;64.09
85507;BME280;75915;41.988;21.460;2024-02-23T04:23:58;98525.00;;;5.93;64.35
85507;BME280;75915;41.988;21.460;2024-02-23T04:26:23;98530.81;;;5.90;64.05
85507;BME280;75915;41.988;21.460;2024-02-23T04:28:49;98527.03;;;5.74;64.19
85507;BME280;75915;41.988;21.460;2024-02-23T04:31:14;98526.84;;;5.64;64.28
85507;BME280;75915;41.988;21.460;2024-02-23T04:33:40;98536.03;;;5.32;64.93
85507;BME280;75915;41.988;21.460;2024-02-23T04:36:06;98539.28;;;5.23;65.42
85507;BME280;75915;41.988;21.460;2024-02-23T04:38:35;98533.50;;;5.26;65.58
85507;BME280;75915;41.988;21.460;2024-02-23T04:41:04;98533.00;;;5.29;65.11
85507;BME280;75915;41.988;21.460;2024-02-23T04:43:30;98531.63;;;5.38;64.92
85507;BME280;75915;41.988;21.460;2024-02-23T04:45:56;98531.69;;;5.55;64.53
85507;BME280;75915;41.988;21.460;2024-02-23T04:48:21;98533.56;;;5.54;64.76
85507;BME280;75915;41.988;21.460;2024-02-23T04:50:47;98531.69;;;5.67;64.11
85507;BME280;75915;41.988;21.460;2024-02-23T04:53:12;98527.63;;;5.64;64.21
85507;BME280;75915;41.988;21.460;2024-02-23T04:55:38;98531.91;;;5.65;64.08
85507;BME280;75915;41.988;21.460;2024-02-23T04:58:04;98535.81;;;5.74;63.91
85507;BME280;75915;41.988;21.460;2024-02-23T05:00:30;98535.81;;;5.74;63.70
85507;BME280;75915;41.988;21.460;2024-02-23T05:03:01;98538.63;;;5.68;64.22
85507;BME280;75915;41.988;21.460;2024-02-23T05:05:32;98534.53;;;5.77;63.90
85507;BME280;75915;41.988;21.460;2024-02-23T05:07:58;98538.91;;;5.83;63.49
85507;BME280;75915;41.988;21.460;2024-02-23T05:10:24;98544.66;;;5.92;63.21
85507;BME280;75915;41.988;21.460;2024-02-23T05:12:50;98545.94;;;5.89;63.38
85507;BME280;75915;41.988;21.460;2024-02-23T05:15:16;98546.09;;;5.83;63.87
85507;BME280;75915;41.988;21.460;2024-02-23T05:17:41;98544.22;;;5.83;63.55
85507;BME280;75915;41.988;21.460;2024-02-23T05:20:07;98554.16;;;5.88;63.40
85507;BME280;75915;41.988;21.460;2024-02-23T05:22:36;98546.88;;;5.83;63.58
85507;BME280;75915;41.988;21.460;2024-02-23T05:25:02;98546.75;;;5.90;63.31
85507;BME280;75915;41.988;21.460;2024-02-23T05:27:28;98540.63;;;5.89;63.20
85507;BME280;75915;41.988;21.460;2024-02-23T05:29:54;98550.34;;;5.84;63.35
85507;BME280;75915;41.988;21.460;2024-02-23T05:32:19;98551.41;;;5.83;63.60
85507;BME280;75915;41.988;21.460;2024-02-23T05:34:45;98550.69;;;5.87;63.76
85507;BME280;75915;41.988;21.460;2024-02-23T05:37:11;98546.75;;;5.90;63.92
85507;BME280;75915;41.988;21.460;2024-02-23T05:39:36;98554.00;;;6.06;63.65
85507;BME280;75915;41.988;21.460;2024-02-23T05:42:04;98556.38;;;6.19;62.92
85507;BME280;75915;41.988;21.460;2024-02-23T05:44:29;98551.41;;;6.40;62.39
85507;BME280;75915;41.988;21.460;2024-02-23T05:46:55;98555.47;;;6.59;62.04
85507;BME280;75915;41.988;21.460;2024-02-23T05:49:20;98558.63;;;6.90;61.10
85507;BME280;75915;41.988;21.460;2024-02-23T05:51:46;98561.59;;;7.11;60.66
85507;BME280;75915;41.988;21.460;2024-02-23T05:54:11;98557.28;;;7.26;60.14
85507;BME280;75915;41.988;21.460;2024-02-23T05:56:37;98570.06;;;7.46;59.54
85507;BME280;75915;41.988;21.460;2024-02-23T05:59:04;98566.16;;;7.71;59.16
85507;BME280;75915;41.988;21.460;2024-02-23T06:01:30;98559.00;;;7.77;58.40
85507;BME280;75915;41.988;21.460;2024-02-23T06:03:56;98562.53;;;7.60;58.91
85507;BME280;75915;41.988;21.460;2024-02-23T06:06:21;98557.72;;;8.33;58.15
85507;BME280;75915;41.988;21.460;2024-02-23T06:08:47;98554.09;;;8.72;56.15
85507;BME280;75915;41.988;21.460;2024-02-23T06:11:15;98542.69;;;8.82;55.38
85507;BME280;75915;41.988;21.460;2024-02-23T06:13:40;98547.53;;;9.22;54.27
85507;BME280;75915;41.988;21.460;2024-02-23T06:16:11;98551.84;;;9.28;54.08
85507;BME280;75915;41.988;21.460;2024-02-23T06:18:38;98551.28;;;9.74;53.79
85507;BME280;75915;41.988;21.460;2024-02-23T06:23:39;98541.94;;;9.87;52.60
85507;BME280;75915;41.988;21.460;2024-02-23T06:26:07;98539.72;;;10.57;52.17
85507;BME280;75915;41.988;21.460;2024-02-23T06:28:33;98539.91;;;11.27;50.14
85507;BME280;75915;41.988;21.460;2024-02-23T06:30:58;98538.75;;;11.53;49.37
85507;BME280;75915;41.988;21.460;2024-02-23T06:33:24;98532.31;;;12.20;47.83
85507;BME280;75915;41.988;21.460;2024-02-23T06:35:50;98527.13;;;12.68;47.07
85507;BME280;75915;41.988;21.460;2024-02-23T06:38:15;98539.09;;;13.44;45.35
85507;BME280;75915;41.988;21.460;2024-02-23T06:40:41;98530.59;;;13.99;44.34
85507;BME280;75915;41.988;21.460;2024-02-23T06:43:07;98537.47;;;13.67;44.01
85507;BME280;75915;41.988;21.460;2024-02-23T06:45:34;98548.88;;;13.83;44.22
85507;BME280;75915;41.988;21.460;2024-02-23T06:47:59;98540.38;;;14.33;43.11
85507;BME280;75915;41.988;21.460;2024-02-23T06:50:25;98540.09;;;14.86;41.97
85507;BME280;75915;41.988;21.460;2024-02-23T06:52:51;98536.72;;;14.42;42.03
85507;BME280;75915;41.988;21.460;2024-02-23T06:55:17;98542.53;;;14.49;42.58
85507;BME280;75915;41.988;21.460;2024-02-23T06:57:43;98539.50;;;15.08;41.37
85507;BME280;75915;41.988;21.460;2024-02-23T07:00:09;98550.81;;;16.07;39.85
85507;BME280;75915;41.988;21.460;2024-02-23T07:02:35;98548.56;;;16.59;38.95
85507;BME280;75915;41.988;21.460;2024-02-23T07:05:03;98540.41;;;16.95;38.19
85507;BME280;75915;41.988;21.460;2024-02-23T07:07:30;98533.22;;;17.22;37.92
85507;BME280;75915;41.988;21.460;2024-02-23T07:09:57;98536.63;;;17.36;37.87
85507;BME280;75915;41.988;21.460;2024-02-23T07:12:24;98539.22;;;17.81;37.52
85507;BME280;75915;41.988;21.460;2024-02-23T07:14:50;98537.84;;;17.61;37.62
85507;BME280;75915;41.988;21.460;2024-02-23T07:17:16;98544.34;;;17.91;37.63
85507;BME280;75915;41.988;21.460;2024-02-23T07:19:44;98535.13;;;17.61;37.78
85507;BME280;75915;41.988;21.460;2024-02-23T07:22:11;98547.31;;;17.10;38.92
85507;BME280;75915;41.988;21.460;2024-02-23T07:24:42;98543.03;;;17.09;39.55
85507;BME280;75915;41.988;21.460;2024-02-23T07:27:09;98547.91;;;16.98;39.59
85507;BME280;75915;41.988;21.460;2024-02-23T07:29:35;98547.16;;;16.84;40.41
85507;BME280;75915;41.988;21.460;2024-02-23T07:32:00;98551.13;;;15.91;42.07
85507;BME280;75915;41.988;21.460;2024-02-23T07:34:26;98553.13;;;14.65;45.24
85507;BME280;75915;41.988;21.460;2024-02-23T07:36:51;98556.69;;;13.02;48.92
85507;BME280;75915;41.988;21.460;2024-02-23T07:39:17;98554.66;;;12.89;49.51
85507;BME280;75915;41.988;21.460;2024-02-23T07:41:43;98550.75;;;12.76;50.50
85507;BME280;75915;41.988;21.460;2024-02-23T07:44:09;98557.53;;;12.97;49.85
85507;BME280;75915;41.988;21.460;2024-02-23T07:46:35;98548.59;;;13.07;49.59
85507;BME280;75915;41.988;21.460;2024-02-23T07:49:00;98556.06;;;12.42;51.54
85507;BME280;75915;41.988;21.460;2024-02-23T07:51:27;98564.75;;;12.28;52.30
85507;BME280;75915;41.988;21.460;2024-02-23T07:53:52;98565.22;;;11.91;52.87
85507;BME280;75915;41.988;21.460;2024-02-23T07:56:18;98578.19;;;11.63;54.22
85507;BME280;75915;41.988;21.460;2024-02-23T07:58:43;98572.44;;;11.95;53.65
85507;BME280;75915;41.988;21.460;2024-02-23T08:01:09;98565.59;;;11.53;54.46
85507;BME280;75915;41.988;21.460;2024-02-23T08:03:36;98570.56;;;11.86;54.06
85507;BME280;75915;41.988;21.460;2024-02-23T08:06:02;98555.22;;;12.46;52.91
85507;BME280;75915;41.988;21.460;2024-02-23T08:08:28;98556.06;;;12.42;52.55
85507;BME280;75915;41.988;21.460;2024-02-23T08:10:54;98545.84;;;12.44;52.58
85507;BME280;75915;41.988;21.460;2024-02-23T08:13:19;98539.00;;;12.96;51.81
85507;BME280;75915;41.988;21.460;2024-02-23T08:15:45;98548.63;;;13.55;50.40
85507;BME280;75915;41.988;21.460;2024-02-23T08:18:10;98544.97;;;13.94;48.89
85507;BME280;75915;41.988;21.460;2024-02-23T08:20:36;98548.28;;;13.86;48.73
85507;BME280;75915;41.988;21.460;2024-02-23T08:23:02;98542.97;;;13.57;49.55
85507;BME280;75915;41.988;21.460;2024-02-23T08:25:27;98537.50;;;13.86;49.32
85507;BME280;75915;41.988;21.460;2024-02-23T08:27:56;98536.84;;;13.75;49.50
85507;BME280;75915;41.988;21.460;2024-02-23T08:30:22;98531.47;;;13.51;49.96
85507;BME280;75915;41.988;21.460;2024-02-23T08:32:47;98534.38;;;13.01;51.59
85507;BME280;75915;41.988;21.460;2024-02-23T08:35:13;98546.19;;;13.35;50.90
85507;BME280;75915;41.988;21.460;2024-02-23T08:37:40;98544.41;;;13.20;51.01
85507;BME280;75915;41.988;21.460;2024-02-23T08:40:07;98537.56;;;13.03;51.06
85507;BME280;75915;41.988;21.460;2024-02-23T08:42:34;98539.94;;;12.42;52.80
85507;BME280;75915;41.988;21.460;2024-02-23T08:45:01;98546.81;;;12.19;53.73
85507;BME280;75915;41.988;21.460;2024-02-23T08:47:26;98538.84;;;12.48;52.78
85507;BME280;75915;41.988;21.460;2024-02-23T08:49:57;98534.91;;;12.69;52.28
85507;BME280;75915;41.988;21.460;2024-02-23T08:52:23;98538.97;;;12.27;53.35
85507;BME280;75915;41.988;21.460;2024-02-23T08:54:52;98538.38;;;11.96;54.04
85507;BME280;75915;41.988;21.460;2024-02-23T08:57:20;98537.66;;;11.65;55.18
85507;BME280;75915;41.988;21.460;2024-02-23T08:59:48;98539.44;;;11.95;54.44
85507;BME280;75915;41.988;21.460;2024-02-23T09:02:14;98534.59;;;12.36;53.10
85507;BME280;75915;41.988;21.460;2024-02-23T09:04:40;98543.56;;;12.66;52.74
85507;BME280;75915;41.988;21.460;2024-02-23T09:07:05;98535.25;;;12.92;52.19
85507;BME280;75915;41.988;21.460;2024-02-23T09:09:31;98529.44;;;13.09;51.58
85507;BME280;75915;41.988;21.460;2024-02-23T09:11:58;98531.97;;;13.29;51.20
85507;BME280;75915;41.988;21.460;2024-02-23T09:14:24;98533.53;;;13.35;51.06
85507;BME280;75915;41.988;21.460;2024-02-23T09:16:51;98534.63;;;13.34;50.77
85507;BME280;75915;41.988;21.460;2024-02-23T09:19:16;98527.53;;;13.43;50.96
85507;BME280;75915;41.988;21.460;2024-02-23T09:21:42;98538.69;;;13.80;50.25
85507;BME280;75915;41.988;21.460;2024-02-23T09:24:09;98520.53;;;14.42;48.69
85507;BME280;75915;41.988;21.460;2024-02-23T09:26:34;98515.53;;;14.87;47.71
85507;BME280;75915;41.988;21.460;2024-02-23T09:29:04;98523.38;;;15.03;46.86
85507;BME280;75915;41.988;21.460;2024-02-23T09:31:30;98520.19;;;15.14;46.74
85507;BME280;75915;41.988;21.460;2024-02-23T09:33:57;98516.81;;;15.23;46.75
85507;BME280;75915;41.988;21.460;2024-02-23T09:36:25;98520.22;;;15.28;46.76
85507;BME280;75915;41.988;21.460;2024-02-23T09:38:50;98513.31;;;15.50;46.77
85507;BME280;75915;41.988;21.460;2024-02-23T09:41:21;98507.59;;;15.65;46.49
85507;BME280;75915;41.988;21.460;2024-02-23T09:43:47;98512.31;;;15.60;46.40
85507;BME280;75915;41.988;21.460;2024-02-23T09:46:17;98508.63;;;15.55;46.20
85507;BME280;75915;41.988;21.460;2024-02-23T09:48:45;98501.81;;;15.58;46.42
85507;BME280;75915;41.988;21.460;2024-02-23T09:51:12;98497.72;;;15.74;46.34
85507;BME280;75915;41.988;21.460;2024-02-23T09:53:38;98499.81;;;15.64;46.30
85507;BME280;75915;41.988;21.460;2024-02-23T09:56:04;98495.50;;;15.63;46.16
85507;BME280;75915;41.988;21.460;2024-02-23T09:58:32;98494.53;;;15.58;46.07
85507;BME280;75915;41.988;21.460;2024-02-23T10:01:01;98493.63;;;15.77;45.31
85507;BME280;75915;41.988;21.460;2024-02-23T10:03:27;98486.16;;;16.10;45.17
85507;BME280;75915;41.988;21.460;2024-02-23T10:05:57;98472.72;;;16.41;44.41
85507;BME280;75915;41.988;21.460;2024-02-23T10:08:22;98474.53;;;16.55;43.73
85507;BME280;75915;41.988;21.460;2024-02-23T10:10:48;98456.84;;;16.71;43.63
85507;BME280;75915;41.988;21.460;2024-02-23T10:13:20;98455.13;;;16.75;43.69
85507;BME280;75915;41.988;21.460;2024-02-23T10:15:49;98450.13;;;16.91;43.86
85507;BME280;75915;41.988;21.460;2024-02-23T10:18:14;98459.63;;;16.80;43.52
85507;BME280;75915;41.988;21.460;2024-02-23T10:20:40;98457.63;;;16.94;43.72
85507;BME280;75915;41.988;21.460;2024-02-23T10:23:07;98444.81;;;17.09;42.95
85507;BME280;75915;41.988;21.460;2024-02-23T10:25:36;98446.94;;;17.29;43.25
85507;BME280;75915;41.988;21.460;2024-02-23T10:28:02;98449.53;;;17.52;41.99
85507;BME280;75915;41.988;21.460;2024-02-23T10:30:28;98447.28;;;17.36;41.98
85507;BME280;75915;41.988;21.460;2024-02-23T10:32:56;98448.75;;;17.42;42.28
85507;BME280;75915;41.988;21.460;2024-02-23T10:35:25;98438.56;;;17.57;42.20
85507;BME280;75915;41.988;21.460;2024-02-23T10:37:54;98433.00;;;17.62;42.07
85507;BME280;75915;41.988;21.460;2024-02-23T10:40:21;98431.22;;;17.66;42.12
85507;BME280;75915;41.988;21.460;2024-02-23T10:42:56;98425.38;;;17.64;41.62
85507;BME280;75915;41.988;21.460;2024-02-23T10:45:22;98427.88;;;17.60;41.84
85507;BME280;75915;41.988;21.460;2024-02-23T10:47:48;98422.25;;;17.39;42.11
85507;BME280;75915;41.988;21.460;2024-02-23T10:50:16;98412.19;;;17.22;42.53
85507;BME280;75915;41.988;21.460;2024-02-23T10:52:43;98404.06;;;17.14;42.49
85507;BME280;75915;41.988;21.460;2024-02-23T10:55:09;98405.88;;;16.96;42.98
85507;BME280;75915;41.988;21.460;2024-02-23T10:57:37;98394.13;;;17.00;43.27
85507;BME280;75915;41.988;21.460;2024-02-23T11:00:07;98395.91;;;17.05;43.28
85507;BME280;75915;41.988;21.460;2024-02-23T11:02:51;98385.56;;;17.07;43.33
85507;BME280;75915;41.988;21.460;2024-02-23T11:05:18;98382.69;;;17.03;42.97
85507;BME280;75915;41.988;21.460;2024-02-23T11:07:47;98377.59;;;17.02;43.16
85507;BME280;75915;41.988;21.460;2024-02-23T11:10:16;98369.94;;;17.04;42.81
85507;BME280;75915;41.988;21.460;2024-02-23T11:12:43;98368.88;;;17.14;42.75
85507;BME280;75915;41.988;21.460;2024-02-23T11:15:09;98355.19;;;17.27;42.88
85507;BME280;75915;41.988;21.460;2024-02-23T11:17:36;98352.19;;;17.46;42.66
85507;BME280;75915;41.988;21.460;2024-02-23T11:20:06;98358.25;;;17.52;42.28
85507;BME280;75915;41.988;21.460;2024-02-23T11:22:35;98344.09;;;17.64;42.36
85507;BME280;75915;41.988;21.460;2024-02-23T11:25:06;98345.19;;;17.72;41.80
85507;BME280;75915;41.988;21.460;2024-02-23T11:27:36;98341.22;;;17.86;42.27
85507;BME280;75915;41.988;21.460;2024-02-23T11:30:07;98344.56;;;17.92;41.43
85507;BME280;75915;41.988;21.460;2024-02-23T11:32:45;98335.81;;;17.86;40.84
85507;BME280;75915;41.988;21.460;2024-02-23T11:35:18;98335.31;;;17.67;40.79
85507;BME280;75915;41.988;21.460;2024-02-23T11:37:55;98337.38;;;17.61;41.63
85507;BME280;75915;41.988;21.460;2024-02-23T11:40:28;98331.97;;;17.70;41.75
85507;BME280;75915;41.988;21.460;2024-02-23T11:42:55;98328.13;;;17.80;41.51
85507;BME280;75915;41.988;21.460;2024-02-23T11:45:24;98324.00;;;17.82;40.66
85507;BME280;75915;41.988;21.460;2024-02-23T11:47:50;98313.50;;;17.81;40.65
85507;BME280;75915;41.988;21.460;2024-02-23T11:50:15;98317.16;;;17.76;40.26
85507;BME280;75915;41.988;21.460;2024-02-23T11:52:46;98309.97;;;17.80;40.25
85507;BME280;75915;41.988;21.460;2024-02-23T11:55:12;98307.91;;;17.77;40.23
85507;BME280;75915;41.988;21.460;2024-02-23T11:57:44;98310.63;;;17.86;40.40
85507;BME280;75915;41.988;21.460;2024-02-23T12:00:10;98310.78;;;17.89;40.70
85507;BME280;75915;41.988;21.460;2024-02-23T12:02:36;98305.66;;;17.97;39.76
85507;BME280;75915;41.988;21.460;2024-02-23T12:05:01;98307.28;;;17.89;39.85
85507;BME280;75915;41.988;21.460;2024-02-23T12:07:32;98300.41;;;17.91;39.30
85507;BME280;75915;41.988;21.460;2024-02-23T12:09:58;98299.16;;;17.89;39.01
85507;BME280;75915;41.988;21.460;2024-02-23T12:12:25;98301.84;;;17.80;38.72
85507;BME280;75915;41.988;21.460;2024-02-23T12:14:52;98297.84;;;17.78;38.58
85507;BME280;75915;41.988;21.460;2024-02-23T12:17:19;98296.44;;;17.80;38.43
85507;BME280;75915;41.988;21.460;2024-02-23T12:19:45;98291.31;;;17.79;38.38
85507;BME280;75915;41.988;21.460;2024-02-23T12:22:14;98297.88;;;17.86;38.76
85507;BME280;75915;41.988;21.460;2024-02-23T12:24:41;98286.38;;;17.89;38.41
85507;BME280;75915;41.988;21.460;2024-02-23T12:27:07;98286.22;;;17.95;38.54
85507;BME280;75915;41.988;21.460;2024-02-23T12:29:32;98280.97;;;17.89;38.29
85507;BME280;75915;41.988;21.460;2024-02-23T12:32:07;98280.97;;;17.89;38.83
85507;BME280;75915;41.988;21.460;2024-02-23T12:34:38;98275.72;;;17.93;38.86
85507;BME280;75915;41.988;21.460;2024-02-23T12:37:05;98274.88;;;17.92;39.24
85507;BME280;75915;41.988;21.460;2024-02-23T12:39:30;98270.13;;;17.89;38.33
85507;BME280;75915;41.988;21.460;2024-02-23T12:41:57;98261.69;;;17.91;37.80
85507;BME280;75915;41.988;21.460;2024-02-23T12:44:23;98261.03;;;17.85;37.91
85507;BME280;75915;41.988;21.460;2024-02-23T12:46:49;98256.41;;;17.95;37.78
85507;BME280;75915;41.988;21.460;2024-02-23T12:49:15;98259.44;;;17.93;37.41
85507;BME280;75915;41.988;21.460;2024-02-23T12:51:41;98256.56;;;17.98;37.14
85507;BME280;75915;41.988;21.460;2024-02-23T12:54:06;98249.06;;;17.95;36.96